Irving North's Hourly Summary for Sunday, July 8, 2018
Hour Temp
(f)
RH
(%)
Solar Rad.
(MJ/m2)
Rainfall
(in)
Wind
(mph)
7/8/2018 12:00 AM 85 55 0 0 4.75
7/8/2018 1:00 AM 83 58 0 0 4.05
7/8/2018 2:00 AM 82 62 0 0 3.34
7/8/2018 3:00 AM 80 64 0 0 2.24
7/8/2018 4:00 AM 80 64 0 0 0.93
7/8/2018 5:00 AM 80 65 0 0 0.61
7/8/2018 6:00 AM 80 64 0.04 0 0.95
7/8/2018 7:00 AM 81 67 0.43 0 2.95
7/8/2018 8:00 AM 83 58 1.08 0 3.78
7/8/2018 9:00 AM 84 59 1.78 0 4.85
7/8/2018 10:00 AM 85 53 2.38 0 5.36
7/8/2018 11:00 AM 88 48 2.89 0 6.11
7/8/2018 12:00 PM 89 41 3.12 0 6.63
7/8/2018 1:00 PM 90 40 2.44 0 7.03
7/8/2018 2:00 PM 91 37 2.01 0 7.46
7/8/2018 3:00 PM 92 32 2.49 0 8.15
7/8/2018 4:00 PM 93 33 1.99 0 8.32
7/8/2018 5:00 PM 93 33 0.9 0 7.14
7/8/2018 6:00 PM 90 43 0.92 0 7.16
7/8/2018 7:00 PM 88 46 0.42 0 6.49
7/8/2018 8:00 PM 87 50 0.04 0 5.6
7/8/2018 9:00 PM 85 53 0 0 6
7/8/2018 10:00 PM 83 54 0 0 4.86
7/8/2018 11:00 PM 82 59 0 0 3.5
Data Summary 85 51 22.93 0.00 4.93